Time;durP1;ratioP1;P1;durP2;ratioP2;P2;SDS_P1;SDS_P2;PMS_P1;PMS_P2;Temp;Humidity;BMP_temperature;BMP_pressure;BME280_temperature;BME280_humidity;BME280_pressure;Samples;Min_cycle;Max_cycle;Signal;HPM_P1;HPM_P2
2023/03/29 00:02:32;;;;;;;12.07;3.92;;;;;;;7.47;100.00;101397.44;5061967;28;20491;-70
2023/03/29 00:05:00;;;;;;;13.27;3.80;;;;;;;7.44;100.00;101385.19;5057985;28;20052;-72
2023/03/29 00:07:29;;;;;;;9.95;4.05;;;;;;;7.44;100.00;101381.63;5061961;28;20093;-72
2023/03/29 00:09:55;;;;;;;13.57;4.20;;;;;;;7.44;100.00;101370.63;5066366;28;20049;-72
2023/03/29 00:12:22;;;;;;;11.80;4.53;;;;;;;7.43;100.00;101363.53;5065684;28;20463;-71
2023/03/29 00:14:49;;;;;;;12.90;5.28;;;;;;;7.44;100.00;101367.88;5066740;28;20203;-71
2023/03/29 00:17:15;;;;;;;10.75;4.68;;;;;;;7.44;100.00;101362.38;5067367;28;20053;-72
2023/03/29 00:19:44;;;;;;;13.13;4.68;;;;;;;7.42;100.00;101356.41;5047948;28;20052;-71
2023/03/29 00:22:11;;;;;;;12.07;3.72;;;;;;;7.40;100.00;101362.28;5066142;28;20525;-70
2023/03/29 00:24:37;;;;;;;10.77;4.18;;;;;;;7.39;100.00;101359.91;5047488;28;20139;-71
2023/03/29 00:27:04;;;;;;;14.32;4.78;;;;;;;7.30;100.00;101354.56;5070131;28;20056;-72
2023/03/29 00:29:31;;;;;;;12.65;4.25;;;;;;;7.31;100.00;101352.63;5065732;28;20049;-72
2023/03/29 00:31:58;;;;;;;9.95;4.28;;;;;;;7.29;100.00;101347.47;5062322;28;20060;-71
2023/03/29 00:34:29;;;;;;;10.57;4.63;;;;;;;7.31;100.00;101339.69;5066195;28;20067;-71
2023/03/29 00:36:56;;;;;;;11.32;4.30;;;;;;;7.34;100.00;101340.91;5064030;28;20628;-72
2023/03/29 00:39:25;;;;;;;12.32;4.25;;;;;;;7.33;100.00;101333.81;5064637;28;20072;-71
2023/03/29 00:41:51;;;;;;;12.32;4.47;;;;;;;7.37;100.00;101337.44;5062855;28;20102;-70
2023/03/29 00:44:57;;;;;;;11.55;4.35;;;;;;;7.41;100.00;101333.59;5061920;28;20514;-71
2023/03/29 00:47:32;;;;;;;10.70;4.18;;;;;;;7.43;100.00;101336.00;5058903;28;20056;-71
2023/03/29 00:50:21;;;;;;;16.25;4.43;;;;;;;7.40;100.00;101328.47;5063948;28;20056;-72
2023/03/29 00:52:51;;;;;;;10.40;4.00;;;;;;;7.41;100.00;101330.84;5056346;28;20052;-71
2023/03/29 00:55:21;;;;;;;11.02;3.63;;;;;;;7.46;100.00;101333.31;5059848;28;20049;-71
2023/03/29 00:57:51;;;;;;;9.45;3.47;;;;;;;7.49;100.00;101327.06;5061308;28;20507;-72
2023/03/29 01:00:21;;;;;;;11.60;4.00;;;;;;;7.51;100.00;101326.72;5069515;28;20055;-71
2023/03/29 01:02:54;;;;;;;11.55;4.05;;;;;;;7.50;100.00;101311.38;5059032;28;20045;-72
2023/03/29 01:05:29;;;;;;;8.25;3.80;;;;;;;7.53;100.00;101310.66;5061935;28;20597;-73
2023/03/29 01:08:06;;;;;;;;;;;;;;;7.52;100.00;101320.84;5068832;28;20076;-72
2023/03/29 01:10:40;;;;;;;9.27;3.75;;;;;;;7.56;100.00;101318.19;5070874;28;19924;-70
2023/03/29 01:13:10;;;;;;;13.00;3.75;;;;;;;7.59;100.00;101311.94;5063744;28;20048;-72
2023/03/29 01:15:40;;;;;;;11.63;3.88;;;;;;;7.62;100.00;101317.53;5061544;28;20734;-71
2023/03/29 01:18:07;;;;;;;9.90;4.10;;;;;;;7.60;100.00;101306.06;5064977;28;20060;-71
2023/03/29 01:21:01;;;;;;;13.55;4.03;;;;;;;7.63;100.00;101299.03;5065721;28;20049;-71
2023/03/29 01:24:05;;;;;;;9.55;4.03;;;;;;;7.66;100.00;101293.59;5061523;28;20075;-72
2023/03/29 01:26:59;;;;;;;9.25;3.78;;;;;;;7.67;100.00;101286.91;5062659;28;20053;-71
2023/03/29 01:29:44;;;;;;;11.50;4.03;;;;;;;7.70;100.00;101288.16;5065682;28;20046;-71
2023/03/29 01:32:21;;;;;;;10.25;4.10;;;;;;;7.70;100.00;101286.19;5046739;28;20074;-71
2023/03/29 01:34:55;;;;;;;12.07;4.18;;;;;;;7.72;100.00;101274.81;5064925;28;20048;-73
2023/03/29 01:37:46;;;;;;;10.30;3.70;;;;;;;7.66;100.00;101273.50;5065559;28;20052;-75
2023/03/29 01:40:13;;;;;;;10.88;4.22;;;;;;;7.66;100.00;101266.03;5064742;28;20057;-69
2023/03/29 01:42:46;;;;;;;8.70;3.63;;;;;;;7.69;100.00;101276.34;5060574;28;20523;-72
2023/03/29 01:45:41;;;;;;;8.15;3.03;;;;;;;7.69;100.00;101267.28;5060820;28;20069;-71
2023/03/29 01:48:26;;;;;;;9.07;3.72;;;;;;;7.73;100.00;101263.44;5054508;28;20145;-72
2023/03/29 01:50:58;;;;;;;11.93;4.25;;;;;;;7.77;100.00;101249.75;5065467;28;20127;-71
2023/03/29 01:53:35;;;;;;;8.50;3.40;;;;;;;7.76;100.00;101250.88;5060407;28;20131;-69
2023/03/29 01:56:07;;;;;;;10.20;3.75;;;;;;;7.74;100.00;101240.22;5063531;28;20735;-69
2023/03/29 01:58:39;;;;;;;7.53;2.97;;;;;;;7.71;100.00;101232.72;5062126;28;20051;-70
2023/03/29 02:01:09;;;;;;;10.88;3.85;;;;;;;7.74;100.00;101231.19;5063604;28;20135;-70
2023/03/29 02:03:41;;;;;;;10.05;3.80;;;;;;;7.75;100.00;101230.00;5063941;28;20127;-70
2023/03/29 02:06:14;;;;;;;12.05;4.00;;;;;;;7.75;100.00;101222.56;5065027;28;20048;-72
2023/03/29 02:08:43;;;;;;;11.48;3.92;;;;;;;7.80;100.00;101227.75;5063708;28;20043;-72
2023/03/29 02:11:10;;;;;;;6.28;3.30;;;;;;;7.85;100.00;101229.41;5064086;28;20513;-71
2023/03/29 02:13:36;;;;;;;8.30;3.28;;;;;;;7.87;100.00;101227.09;5065124;28;20041;-72
2023/03/29 02:16:11;;;;;;;9.50;3.30;;;;;;;7.82;100.00;101230.94;5062590;28;20075;-71
2023/03/29 02:18:44;;;;;;;9.70;3.60;;;;;;;7.86;100.00;101231.00;5063654;28;20077;-71
2023/03/29 02:21:25;;;;;;;9.77;3.78;;;;;;;7.89;100.00;101225.56;5064837;28;20056;-71
2023/03/29 02:23:54;;;;;;;9.05;3.72;;;;;;;7.94;100.00;101218.94;5062915;28;20142;-71
2023/03/29 02:26:22;;;;;;;10.73;3.15;;;;;;;7.95;100.00;101213.06;5064590;28;20048;-71
2023/03/29 02:28:50;;;;;;;9.23;3.35;;;;;;;7.99;100.00;101219.44;5061836;28;20736;-70
2023/03/29 02:31:34;;;;;;;8.45;3.35;;;;;;;8.03;100.00;101225.00;5062705;28;20147;-71
2023/03/29 02:34:27;;;;;;;9.50;3.65;;;;;;;8.06;100.00;101224.25;5063411;28;20075;-70
2023/03/29 02:36:58;;;;;;;9.30;3.67;;;;;;;8.09;100.00;101215.25;5036553;28;20143;-71
2023/03/29 02:39:28;;;;;;;12.18;3.45;;;;;;;8.11;100.00;101207.44;5047035;28;20549;-71
2023/03/29 02:41:55;;;;;;;9.25;3.65;;;;;;;8.10;100.00;101205.03;5062888;28;20059;-71
2023/03/29 02:44:26;;;;;;;7.68;2.90;;;;;;;8.11;100.00;101201.91;5067442;28;20056;-71
2023/03/29 02:46:56;;;;;;;8.15;3.20;;;;;;;8.13;100.00;101196.81;5068663;28;20051;-72
2023/03/29 02:49:23;;;;;;;10.27;3.67;;;;;;;8.12;100.00;101203.50;5068974;28;20045;-70
2023/03/29 02:51:54;;;;;;;7.95;3.22;;;;;;;8.21;100.00;101192.22;5067567;28;20064;-73
2023/03/29 02:54:24;;;;;;;9.30;3.15;;;;;;;8.24;100.00;101192.31;5068615;28;20044;-71
2023/03/29 02:56:59;;;;;;;11.57;3.90;;;;;;;8.30;100.00;101195.56;5073557;28;20058;-71
2023/03/29 02:59:28;;;;;;;8.23;3.30;;;;;;;8.30;100.00;101193.56;5070322;28;20051;-71
2023/03/29 03:01:55;;;;;;;9.07;3.22;;;;;;;8.28;100.00;101192.38;5068222;28;20530;-71
2023/03/29 03:04:22;;;;;;;6.70;3.20;;;;;;;8.32;100.00;101194.00;5061300;28;20052;-71
2023/03/29 03:06:49;;;;;;;8.45;2.72;;;;;;;8.31;100.00;101192.44;5067444;28;20048;-72
2023/03/29 03:09:15;;;;;;;10.43;3.35;;;;;;;8.37;100.00;101196.44;5066188;28;20044;-69
2023/03/29 03:11:42;;;;;;;4.40;2.38;;;;;;;8.34;100.00;101191.69;5059240;28;20099;-72
2023/03/29 03:14:09;;;;;;;7.93;3.10;;;;;;;8.44;100.00;101195.78;5067898;28;20051;-70
2023/03/29 03:16:36;;;;;;;6.05;2.63;;;;;;;8.41;100.00;101194.56;5068657;28;20040;-71
2023/03/29 03:19:03;;;;;;;9.10;3.58;;;;;;;8.43;100.00;101194.19;5051333;28;20053;-71
2023/03/29 03:21:29;;;;;;;13.05;3.88;;;;;;;8.43;100.00;101180.41;5067703;28;20052;-71
2023/03/29 03:23:56;;;;;;;5.57;1.75;;;;;;;8.43;100.00;101174.88;5062947;28;20048;-71
2023/03/29 03:26:28;;;;;;;7.15;3.10;;;;;;;8.50;100.00;101183.25;5061825;28;20056;-70
2023/03/29 03:28:55;;;;;;;8.30;3.17;;;;;;;8.48;100.00;101172.59;5069663;28;20059;-72
2023/03/29 03:31:22;;;;;;;3.03;1.38;;;;;;;8.44;100.00;101173.72;5064611;28;20060;-70
2023/03/29 03:33:48;;;;;;;8.82;3.20;;;;;;;8.53;100.00;101176.97;5062954;28;20414;-70
2023/03/29 03:36:15;;;;;;;1.30;1.20;;;;;;;8.49;100.00;101179.69;5064081;28;20087;-70
2023/03/29 03:38:42;;;;;;;6.10;1.88;;;;;;;8.58;100.00;101182.19;5071323;28;20060;-70
2023/03/29 03:41:09;;;;;;;13.25;3.65;;;;;;;8.60;100.00;101185.38;5068311;28;20053;-68
2023/03/29 03:43:35;;;;;;;4.32;1.98;;;;;;;8.58;100.00;101176.66;5067469;28;20041;-70
2023/03/29 03:46:02;;;;;;;3.38;1.38;;;;;;;8.59;100.00;101181.81;5049683;28;20139;-70
2023/03/29 03:48:29;;;;;;;6.93;2.45;;;;;;;8.65;100.00;101174.00;5053754;28;20064;-71
2023/03/29 03:50:57;;;;;;;1.92;1.40;;;;;;;8.65;100.00;101174.81;5065767;28;20055;-69
2023/03/29 03:53:26;;;;;;;7.45;3.28;;;;;;;8.73;100.00;101176.50;5043307;28;20052;-70
2023/03/29 03:55:54;;;;;;;5.30;2.63;;;;;;;8.70;100.00;101177.22;5066238;28;20056;-71
2023/03/29 03:58:21;;;;;;;5.82;2.67;;;;;;;8.75;100.00;101190.72;5074369;28;20067;-71
2023/03/29 04:00:49;;;;;;;8.65;2.15;;;;;;;8.74;100.00;101186.34;5065681;28;20049;-73
2023/03/29 04:03:16;;;;;;;3.80;1.70;;;;;;;8.68;100.00;101182.34;5066404;28;20049;-71
2023/03/29 04:05:44;;;;;;;3.05;1.23;;;;;;;8.72;100.00;101183.19;5066419;28;20131;-72
2023/03/29 04:08:12;;;;;;;9.18;3.00;;;;;;;8.70;100.00;101187.47;5071425;28;20052;-71
2023/03/29 04:10:39;;;;;;;9.75;3.40;;;;;;;8.71;100.00;101183.56;5067086;28;20074;-71
2023/03/29 04:13:06;;;;;;;6.55;2.80;;;;;;;8.57;100.00;101178.63;5067494;28;20053;-71
2023/03/29 04:15:37;;;;;;;6.15;2.17;;;;;;;8.58;100.00;101183.00;5042510;28;20487;-71
2023/03/29 04:18:06;;;;;;;5.90;2.92;;;;;;;8.54;100.00;101182.13;5060289;28;20052;-71
2023/03/29 04:20:33;;;;;;;14.60;4.53;;;;;;;8.53;100.00;101183.28;5060762;28;20139;-70
2023/03/29 04:22:59;;;;;;;11.75;4.15;;;;;;;8.53;100.00;101182.50;5069694;28;20054;-71
2023/03/29 04:25:26;;;;;;;12.98;3.50;;;;;;;8.48;100.00;101174.56;5077792;28;20059;-69
2023/03/29 04:27:52;;;;;;;3.53;2.10;;;;;;;8.38;100.00;101161.41;5074938;28;20052;-71
2023/03/29 04:30:19;;;;;;;9.70;3.95;;;;;;;8.38;100.00;101166.91;5064022;28;20059;-73
2023/03/29 04:32:46;;;;;;;8.35;3.67;;;;;;;8.36;100.00;101159.00;5064980;28;20106;-71
2023/03/29 04:35:13;;;;;;;13.70;4.63;;;;;;;8.30;100.00;101156.97;5048674;28;20066;-72
2023/03/29 04:37:40;;;;;;;11.57;4.85;;;;;;;8.30;100.00;101163.25;5069520;28;20048;-71
2023/03/29 04:40:08;;;;;;;11.32;4.00;;;;;;;8.31;100.00;101161.28;5049448;28;20052;-73
2023/03/29 04:42:36;;;;;;;12.90;4.60;;;;;;;8.31;100.00;101161.28;5044944;28;20048;-70
2023/03/29 04:45:05;;;;;;;14.38;5.10;;;;;;;8.36;100.00;101156.25;5066244;28;20063;-72
2023/03/29 04:47:35;;;;;;;9.75;3.78;;;;;;;8.33;100.00;101151.47;5060646;28;20059;-71
2023/03/29 04:50:02;;;;;;;10.30;3.92;;;;;;;8.25;100.00;101155.31;5048530;28;20857;-73
2023/03/29 04:52:31;;;;;;;17.75;4.47;;;;;;;8.35;100.00;101159.38;5065346;28;20136;-69
2023/03/29 04:55:00;;;;;;;8.05;2.75;;;;;;;8.30;100.00;101152.22;5062168;28;20049;-74
2023/03/29 04:57:28;;;;;;;11.70;3.70;;;;;;;8.34;100.00;101149.53;5062078;28;20851;-71
2023/03/29 04:59:55;;;;;;;11.27;4.13;;;;;;;8.37;100.00;101144.06;5066577;28;20430;-71
2023/03/29 05:02:22;;;;;;;3.65;1.92;;;;;;;8.34;100.00;101142.06;5045238;28;20051;-70
2023/03/29 05:04:49;;;;;;;19.45;5.47;;;;;;;8.44;100.00;101146.91;5064047;28;20436;-71
2023/03/29 05:07:16;;;;;;;15.05;4.53;;;;;;;8.45;100.00;101150.47;5063199;28;20044;-71
2023/03/29 05:09:43;;;;;;;4.07;1.55;;;;;;;8.39;100.00;101151.94;5067069;28;20041;-71
2023/03/29 05:12:10;;;;;;;9.93;3.50;;;;;;;8.46;100.00;101143.78;5065863;28;20063;-71
2023/03/29 05:14:36;;;;;;;10.80;4.22;;;;;;;8.45;100.00;101154.03;5065019;28;20055;-70
2023/03/29 05:17:03;;;;;;;11.80;5.00;;;;;;;8.47;100.00;101146.16;5048191;28;20471;-72
2023/03/29 05:19:30;;;;;;;0.80;0.63;;;;;;;8.39;100.00;101150.00;5072276;28;20616;-68
2023/03/29 05:21:57;;;;;;;10.43;3.78;;;;;;;8.44;100.00;101151.66;5062623;28;20102;-70
2023/03/29 05:24:24;;;;;;;8.15;1.90;;;;;;;8.32;100.00;101146.34;5066640;28;20044;-70
2023/03/29 05:26:51;;;;;;;7.57;3.15;;;;;;;8.30;100.00;101149.47;5071153;28;20450;-69
2023/03/29 05:29:18;;;;;;;9.35;3.53;;;;;;;8.36;100.00;101147.19;5060559;28;20052;-73
2023/03/29 05:31:45;;;;;;;12.10;4.13;;;;;;;8.33;100.00;101139.69;5064461;28;20055;-72
2023/03/29 05:34:12;;;;;;;13.88;5.03;;;;;;;8.38;100.00;101140.16;5066501;28;20419;-71
2023/03/29 05:36:39;;;;;;;5.03;1.73;;;;;;;8.28;100.00;101153.75;5065906;28;20052;-71
2023/03/29 05:39:06;;;;;;;17.13;5.72;;;;;;;8.27;100.00;101152.19;5059488;28;20345;-70
2023/03/29 05:41:33;;;;;;;1.35;1.25;;;;;;;8.28;100.00;101151.00;5059676;28;20514;-71
2023/03/29 05:44:00;;;;;;;13.98;5.30;;;;;;;8.39;100.00;101150.00;5061728;28;20775;-70
2023/03/29 05:46:27;;;;;;;9.85;3.90;;;;;;;8.33;100.00;101129.41;5065768;28;20062;-69
2023/03/29 05:48:53;;;;;;;18.02;6.18;;;;;;;8.36;100.00;101133.38;5064731;28;20059;-71
2023/03/29 05:51:23;;;;;;;15.43;5.22;;;;;;;8.39;100.00;101133.47;5064170;28;20048;-70
2023/03/29 05:53:50;;;;;;;19.20;5.97;;;;;;;8.38;100.00;101131.06;5065806;28;20056;-71
2023/03/29 05:56:17;;;;;;;13.95;6.20;;;;;;;8.39;100.00;101129.91;5064022;28;20052;-71
2023/03/29 05:58:48;;;;;;;9.00;2.78;;;;;;;8.36;100.00;101136.94;5065569;28;20056;-70
2023/03/29 06:01:16;;;;;;;18.15;6.70;;;;;;;8.44;100.00;101135.88;5065482;28;20473;-74
2023/03/29 06:03:44;;;;;;;17.58;6.22;;;;;;;8.42;100.00;101132.72;5043006;28;20048;-71
2023/03/29 06:06:15;;;;;;;16.67;6.78;;;;;;;8.44;100.00;101119.34;5056400;28;20052;-69
2023/03/29 06:08:43;;;;;;;15.52;5.88;;;;;;;8.47;100.00;101135.13;5048076;28;20070;-72
2023/03/29 06:11:12;;;;;;;18.83;7.05;;;;;;;8.55;100.00;101119.50;5048284;28;20075;-70
2023/03/29 06:13:38;;;;;;;16.05;6.68;;;;;;;8.61;100.00;101131.78;5065425;28;20080;-69
2023/03/29 06:16:05;;;;;;;16.42;6.65;;;;;;;8.64;100.00;101137.34;5064976;28;20399;-72
2023/03/29 06:18:32;;;;;;;16.20;6.55;;;;;;;8.70;100.00;101133.09;5066956;28;20083;-71
2023/03/29 06:21:01;;;;;;;20.67;7.10;;;;;;;8.73;100.00;101129.59;5068371;28;20078;-69
2023/03/29 06:23:30;;;;;;;18.85;6.60;;;;;;;8.77;100.00;101140.69;5067047;28;20087;-70
2023/03/29 06:25:58;;;;;;;20.02;6.32;;;;;;;8.81;100.00;101144.28;5063337;28;20121;-70
2023/03/29 06:28:25;;;;;;;16.50;6.55;;;;;;;8.82;100.00;101137.56;5069086;28;20218;-71
2023/03/29 06:30:55;;;;;;;16.73;6.70;;;;;;;8.86;100.00;101133.69;5070833;28;20055;-70
2023/03/29 06:33:23;;;;;;;15.48;6.00;;;;;;;8.89;100.00;101134.91;5069866;28;20110;-70
2023/03/29 06:35:49;;;;;;;16.05;6.53;;;;;;;8.94;100.00;101135.38;5052424;28;20064;-71
2023/03/29 06:38:16;;;;;;;17.02;5.90;;;;;;;8.96;100.00;101137.75;5052136;28;20080;-69
2023/03/29 06:40:43;;;;;;;16.05;6.45;;;;;;;8.98;100.00;101136.19;5070352;28;20053;-72
2023/03/29 06:43:10;;;;;;;19.52;6.25;;;;;;;8.97;100.00;101137.38;5069145;28;20052;-71
2023/03/29 06:45:37;;;;;;;13.30;5.45;;;;;;;8.99;100.00;101137.81;5069620;28;20147;-72
2023/03/29 06:48:06;;;;;;;20.67;7.22;;;;;;;9.09;100.00;101150.94;5069063;28;20048;-72
2023/03/29 06:50:33;;;;;;;16.90;5.90;;;;;;;9.01;100.00;101143.72;5069107;28;20063;-71
2023/03/29 06:53:01;;;;;;;20.80;8.25;;;;;;;9.12;100.00;101157.66;5071537;28;20054;-70
2023/03/29 06:55:27;;;;;;;20.13;6.78;;;;;;;9.11;100.00;101164.38;5061570;28;20045;-70
2023/03/29 06:57:54;;;;;;;14.63;6.50;;;;;;;9.13;100.00;101165.56;5061842;28;20118;-70
2023/03/29 07:00:27;;;;;;;19.08;7.65;;;;;;;9.18;100.00;101158.94;5066204;28;20043;-71
2023/03/29 07:02:55;;;;;;;25.83;9.85;;;;;;;9.21;100.00;101163.69;5047600;28;20127;-72
2023/03/29 07:05:22;;;;;;;16.13;5.82;;;;;;;9.21;100.00;101152.66;5065358;28;20056;-73
2023/03/29 07:07:54;;;;;;;16.25;6.78;;;;;;;9.31;100.00;101160.22;5063797;28;20045;-73
2023/03/29 07:10:22;;;;;;;21.10;6.68;;;;;;;9.35;100.00;101153.56;5067576;28;20688;-74
2023/03/29 07:12:49;;;;;;;19.60;7.20;;;;;;;9.40;100.00;101150.50;5066052;28;20135;-74
2023/03/29 07:15:15;;;;;;;23.27;6.47;;;;;;;9.44;100.00;101153.28;5066311;28;20499;-72
2023/03/29 07:17:42;;;;;;;16.70;6.13;;;;;;;9.50;100.00;101146.25;5069071;28;20060;-73
2023/03/29 07:20:13;;;;;;;17.70;6.82;;;;;;;9.51;100.00;101151.38;5068761;28;20058;-73
2023/03/29 07:22:44;;;;;;;18.20;6.35;;;;;;;9.54;100.00;101147.88;5067358;28;20045;-73
2023/03/29 07:25:11;;;;;;;10.15;3.38;;;;;;;9.58;100.00;101151.47;5062301;28;20049;-73
2023/03/29 07:27:39;;;;;;;16.90;7.35;;;;;;;9.66;100.00;101152.31;5071406;28;20059;-72
2023/03/29 07:30:09;;;;;;;16.58;7.15;;;;;;;9.71;100.00;101154.72;5070194;28;20055;-71
2023/03/29 07:32:37;;;;;;;14.15;5.95;;;;;;;9.72;100.00;101157.13;5064135;28;20055;-74
2023/03/29 07:35:06;;;;;;;11.75;4.85;;;;;;;9.77;100.00;101158.75;5067975;28;20044;-72
2023/03/29 07:37:35;;;;;;;18.98;8.02;;;;;;;9.91;100.00;101156.09;5064056;28;20169;-73
2023/03/29 07:40:07;;;;;;;18.85;6.40;;;;;;;9.95;100.00;101162.44;5066408;28;20048;-72
2023/03/29 07:42:37;;;;;;;12.82;5.47;;;;;;;9.88;100.00;101160.44;5074839;28;20082;-73
2023/03/29 07:45:05;;;;;;;21.50;7.57;;;;;;;10.03;100.00;101162.13;5065509;28;20045;-73
2023/03/29 07:47:32;;;;;;;11.48;5.40;;;;;;;10.09;100.00;101173.66;5065899;28;20155;-73
2023/03/29 07:49:59;;;;;;;15.80;7.20;;;;;;;10.17;100.00;101169.78;5068091;28;20041;-73
2023/03/29 07:52:28;;;;;;;16.75;7.43;;;;;;;10.22;100.00;101164.69;5070023;28;20056;-73
2023/03/29 07:54:56;;;;;;;13.63;4.90;;;;;;;10.24;100.00;101164.31;5060279;28;20145;-72
2023/03/29 07:57:25;;;;;;;15.75;5.50;;;;;;;10.28;100.00;101165.13;5069462;28;20057;-73
2023/03/29 07:59:53;;;;;;;4.70;2.08;;;;;;;10.36;100.00;101169.50;5053418;28;20045;-73
2023/03/29 08:02:20;;;;;;;16.13;5.97;;;;;;;10.42;100.00;101163.25;5065128;28;20075;-74
2023/03/29 08:04:46;;;;;;;3.30;1.98;;;;;;;10.47;100.00;101165.63;5060691;28;20050;-73
2023/03/29 08:07:15;;;;;;;12.02;4.68;;;;;;;10.57;100.00;101161.38;5061383;28;20052;-74
2023/03/29 08:09:44;;;;;;;6.05;2.67;;;;;;;10.56;100.00;101157.00;5042727;28;20041;-72
2023/03/29 08:12:11;;;;;;;7.32;2.70;;;;;;;10.62;100.00;101160.19;5066159;28;20430;-73
2023/03/29 08:14:37;;;;;;;11.57;3.90;;;;;;;10.75;100.00;101156.72;5065330;28;20052;-76
2023/03/29 08:17:04;;;;;;;15.73;4.85;;;;;;;10.83;100.00;101158.31;5059239;28;20830;-73
2023/03/29 08:19:31;;;;;;;10.25;3.90;;;;;;;10.83;100.00;101146.47;5063503;28;20051;-73
2023/03/29 08:21:59;;;;;;;14.82;4.97;;;;;;;10.97;100.00;101150.06;5062976;28;20113;-74
2023/03/29 08:24:26;;;;;;;8.73;3.15;;;;;;;10.92;100.00;101141.34;5065571;28;20097;-72
2023/03/29 08:26:52;;;;;;;9.27;2.60;;;;;;;10.94;100.00;101147.31;5070486;28;20052;-74
2023/03/29 08:29:19;;;;;;;20.77;5.25;;;;;;;11.01;100.00;101144.56;5064708;28;20045;-73
2023/03/29 08:31:46;;;;;;;5.75;2.53;;;;;;;10.96;100.00;101142.16;5065316;28;20352;-71
2023/03/29 08:34:12;;;;;;;15.65;5.07;;;;;;;11.13;100.00;101150.53;5066053;28;20107;-72
2023/03/29 08:36:39;;;;;;;24.23;6.45;;;;;;;11.20;100.00;101138.72;5066785;28;20040;-73
2023/03/29 08:39:05;;;;;;;17.83;5.45;;;;;;;11.24;100.00;101156.13;5069538;28;20383;-77
2023/03/29 08:41:47;;;;;;;4.63;2.33;;;;;;;11.22;100.00;101144.63;5064688;28;20518;-73
2023/03/29 08:44:37;;;;;;;4.95;1.67;;;;;;;11.27;100.00;101149.81;5068352;28;20052;-73
2023/03/29 08:47:10;;;;;;;14.07;4.50;;;;;;;11.39;100.00;101143.88;5052163;28;20066;-75
2023/03/29 08:49:41;;;;;;;9.30;3.67;;;;;;;11.43;100.00;101133.59;5062401;28;20629;-73
2023/03/29 08:52:20;;;;;;;13.00;4.72;;;;;;;11.55;100.00;101147.91;5061283;28;20056;-76
2023/03/29 08:54:50;;;;;;;12.85;4.07;;;;;;;11.60;100.00;101147.50;5047942;28;20048;-76
2023/03/29 08:57:31;;;;;;;1.33;0.82;;;;;;;11.54;100.00;101145.53;5062847;28;20088;-76
2023/03/29 09:00:01;;;;;;;6.15;3.08;;;;;;;11.58;100.00;101146.31;5071500;28;20524;-74
2023/03/29 09:02:32;;;;;;;5.45;2.72;;;;;;;11.52;100.00;101148.69;5059743;28;20080;-75
2023/03/29 09:05:13;;;;;;;3.75;1.85;;;;;;;11.53;100.00;101152.22;5063440;28;20277;-73
2023/03/29 09:07:39;;;;;;;10.75;3.13;;;;;;;11.28;100.00;101154.97;5062910;28;20048;-74
2023/03/29 09:10:13;;;;;;;7.10;2.72;;;;;;;11.29;100.00;101136.34;5060106;28;20053;-74
2023/03/29 09:13:02;;;;;;;12.18;4.65;;;;;;;11.29;100.00;101144.66;5064342;28;20314;-74
2023/03/29 09:15:59;;;;;;;7.15;3.10;;;;;;;10.99;100.00;101155.22;5061946;28;20056;-73
2023/03/29 09:18:34;;;;;;;8.45;2.78;;;;;;;10.89;100.00;101156.78;5063158;28;20526;-74
2023/03/29 09:21:30;;;;;;;9.57;3.28;;;;;;;10.75;100.00;101158.69;5055144;28;20049;-73
2023/03/29 09:24:14;;;;;;;14.85;4.00;;;;;;;10.79;100.00;101143.69;5065454;28;20091;-73
2023/03/29 09:26:47;;;;;;;15.05;4.72;;;;;;;10.88;100.00;101149.66;5059009;28;20079;-72
2023/03/29 09:29:24;;;;;;;4.38;2.15;;;;;;;10.72;100.00;101159.44;5059007;28;20048;-73
2023/03/29 09:31:53;;;;;;;2.28;1.55;;;;;;;10.69;100.00;101157.47;5064466;28;20048;-73
2023/03/29 09:34:23;;;;;;;15.02;6.63;;;;;;;10.78;100.00;101152.38;5046750;28;20150;-73
2023/03/29 09:37:02;;;;;;;17.88;7.15;;;;;;;10.83;100.00;101147.25;5056960;28;20053;-72
2023/03/29 09:39:28;;;;;;;15.93;6.00;;;;;;;10.89;100.00;101140.16;5056321;28;20414;-74
2023/03/29 09:42:03;;;;;;;20.20;6.22;;;;;;;11.01;100.00;101144.56;5061743;28;20432;-74
2023/03/29 09:44:51;;;;;;;15.83;6.27;;;;;;;11.12;100.00;101123.22;5044749;28;20055;-72
2023/03/29 09:47:28;;;;;;;24.15;6.28;;;;;;;11.26;100.00;101123.28;5039199;28;20049;-73
2023/03/29 09:50:04;;;;;;;22.25;6.28;;;;;;;11.39;100.00;101124.50;5060579;28;20131;-74
2023/03/29 09:52:36;;;;;;;17.10;5.88;;;;;;;11.53;100.00;101124.50;5064577;28;20107;-74
2023/03/29 09:55:04;;;;;;;12.65;4.95;;;;;;;11.69;100.00;101123.00;5046322;28;20051;-73
2023/03/29 09:57:31;;;;;;;7.88;3.60;;;;;;;11.75;100.00;101138.03;5068007;28;20537;-74
2023/03/29 10:00:02;;;;;;;4.90;2.63;;;;;;;11.85;100.00;101136.47;5064177;28;20126;-74
2023/03/29 10:02:30;;;;;;;6.72;3.00;;;;;;;11.83;100.00;101147.97;5061340;28;20804;-75
2023/03/29 10:05:02;;;;;;;7.97;4.00;;;;;;;12.00;100.00;101143.59;5061611;28;20053;-73
2023/03/29 10:07:43;;;;;;;13.88;5.28;;;;;;;12.17;100.00;101140.00;5065401;28;20058;-73
2023/03/29 10:10:21;;;;;;;4.70;2.10;;;;;;;12.13;100.00;101134.50;5067434;28;20049;-73
2023/03/29 10:12:53;;;;;;;2.58;1.52;;;;;;;12.19;100.00;101143.19;5066039;28;20049;-74
2023/03/29 10:15:20;;;;;;;11.50;4.50;;;;;;;12.35;100.00;101133.25;5065301;28;20053;-74
2023/03/29 10:18:06;;;;;;;15.60;4.75;;;;;;;12.45;100.00;101134.41;5071348;28;20371;-73
2023/03/29 10:20:38;;;;;;;7.53;3.47;;;;;;;12.40;100.00;101132.88;5062439;28;20076;-74
2023/03/29 10:23:07;;;;;;;12.05;4.60;;;;;;;12.65;100.00;101127.22;5065117;28;20336;-74
2023/03/29 10:25:40;;;;;;;11.75;2.85;;;;;;;12.62;100.00;101125.25;5069281;28;20283;-73
2023/03/29 10:28:16;;;;;;;15.38;4.15;;;;;;;12.81;100.00;101135.91;5069699;28;20127;-75
2023/03/29 10:30:46;;;;;;;9.87;3.77;;;;;;;12.87;100.00;101131.53;5068131;28;20048;-73
2023/03/29 10:33:19;;;;;;;5.85;2.50;;;;;;;12.88;100.00;101130.31;5074023;28;20059;-76
2023/03/29 10:35:47;;;;;;;11.63;3.83;;;;;;;12.98;100.00;101129.50;5078056;28;20040;-76
2023/03/29 10:38:20;;;;;;;8.35;2.90;;;;;;;12.90;100.00;101139.06;5059455;28;20067;-75
2023/03/29 10:40:52;;;;;;;12.75;4.32;;;;;;;12.71;100.00;101145.88;5069532;28;20123;-75
2023/03/29 10:43:18;;;;;;;5.65;2.17;;;;;;;12.78;100.00;101142.25;5065991;28;20044;-75
2023/03/29 10:45:50;;;;;;;10.25;3.65;;;;;;;12.93;100.00;101124.38;5066402;28;20526;-73
2023/03/29 10:48:18;;;;;;;2.22;1.85;;;;;;;13.02;100.00;101123.97;5066214;28;20093;-72
2023/03/29 10:50:51;;;;;;;12.85;4.63;;;;;;;13.10;100.00;101115.19;5065320;28;20063;-73
2023/03/29 10:53:25;;;;;;;6.25;2.75;;;;;;;13.06;100.00;101125.50;5065221;28;20067;-73
2023/03/29 10:56:13;;;;;;;10.45;4.20;;;;;;;13.18;100.00;101113.16;5055660;28;20131;-73
2023/03/29 10:58:51;;;;;;;6.82;3.17;;;;;;;13.01;100.00;101114.84;5064165;28;20067;-73
2023/03/29 11:01:37;;;;;;;16.70;4.72;;;;;;;13.16;100.00;101115.56;5064998;28;20442;-76
2023/03/29 11:04:19;;;;;;;9.63;3.83;;;;;;;13.12;100.00;101112.78;5064438;28;20098;-74
2023/03/29 11:07:12;;;;;;;7.13;2.53;;;;;;;13.29;100.00;101111.91;5067401;28;20044;-73
2023/03/29 11:10:03;;;;;;;7.55;2.92;;;;;;;13.32;100.00;101105.53;5057538;28;20068;-74
2023/03/29 11:12:55;;;;;;;7.47;3.05;;;;;;;13.63;100.00;101110.06;5063691;28;20041;-73
2023/03/29 11:15:50;;;;;;;12.65;4.68;;;;;;;13.94;100.00;101099.91;5061224;28;20047;-73
2023/03/29 11:18:39;;;;;;;8.32;3.85;;;;;;;14.12;100.00;101098.56;5068363;28;20048;-73
2023/03/29 11:21:11;;;;;;;9.75;3.28;;;;;;;14.08;100.00;101091.44;5071423;28;20055;-72
2023/03/29 11:23:56;;;;;;;3.30;2.30;;;;;;;14.25;100.00;101082.94;5067113;28;20520;-74
2023/03/29 11:26:44;;;;;;;6.07;2.40;;;;;;;14.17;100.00;101081.41;5069713;28;20058;-74
2023/03/29 11:29:32;;;;;;;11.27;3.10;;;;;;;14.26;100.00;101090.09;5067944;28;20051;-76
2023/03/29 11:32:06;;;;;;;10.38;3.67;;;;;;;14.42;100.00;101092.31;5045868;28;20449;-76
2023/03/29 11:34:58;;;;;;;9.57;3.08;;;;;;;14.25;100.00;101079.38;5067385;28;20056;-74
2023/03/29 11:37:34;;;;;;;4.18;1.88;;;;;;;14.44;100.00;101084.31;5068317;28;20037;-74
2023/03/29 11:40:33;;;;;;;16.83;4.28;;;;;;;14.60;100.00;101079.78;5066929;28;20055;-73